Time;durP1;ratioP1;P1;durP2;ratioP2;P2;SDS_P1;SDS_P2;PMS_P1;PMS_P2;Temp;Humidity;BMP_temperature;BMP_pressure;BME280_temperature;BME280_humidity;BME280_pressure;Samples;Min_cycle;Max_cycle;Signal;HPM_P1;HPM_P2
2023/10/02 00:01:21;;;;;;;18.15;12.02;;;;;;;;;;4960933;28;20113;-77
2023/10/02 00:04:15;;;;;;;16.17;12.18;;;;;;;;;;4962475;28;20031;-76
2023/10/02 00:06:36;;;;;;;16.50;13.48;;;;;;;;;;4963607;28;20157;-76
2023/10/02 00:09:05;;;;;;;19.75;13.10;;;;;;;;;;4958831;28;20609;-76
2023/10/02 00:11:41;;;;;;;14.70;12.20;;;;;;;;;;4958918;28;20034;-76
2023/10/02 00:14:18;;;;;;;16.25;12.52;;;;;;;;;;4961049;28;20068;-77
2023/10/02 00:17:03;;;;;;;16.30;11.95;;;;;;;;;;4963576;28;20109;-76
2023/10/02 00:19:36;;;;;;;15.68;12.35;;;;;;;;;;4955218;28;20093;-76
2023/10/02 00:22:07;;;;;;;17.42;12.60;;;;;;;;;;4956671;28;20514;-77
2023/10/02 00:24:38;;;;;;;15.25;12.02;;;;;;;;;;4963864;28;20038;-76
2023/10/02 00:27:08;;;;;;;18.90;12.63;;;;;;;;;;4961804;28;20066;-76
2023/10/02 00:29:34;;;;;;;13.88;12.05;;;;;;;;;;4959770;28;20480;-76
2023/10/02 00:32:00;;;;;;;18.55;13.20;;;;;;;;;;4958297;28;20031;-76
2023/10/02 00:34:33;;;;;;;17.73;12.65;;;;;;;;;;4961145;28;20672;-76
2023/10/02 00:37:06;;;;;;;19.40;12.38;;;;;;;;;;4960487;28;20066;-76
2023/10/02 00:39:36;;;;;;;15.02;12.50;;;;;;;;;;4954868;28;20035;-76
2023/10/02 00:44:51;;;;;;;19.05;11.90;;;;;;;;;;4955444;28;20050;-76
2023/10/02 00:50:17;;;;;;;23.45;12.77;;;;;;;;;;4962016;28;20509;-76
2023/10/02 00:52:47;;;;;;;18.08;12.85;;;;;;;;;;4962425;28;20038;-77
2023/10/02 00:55:21;;;;;;;16.60;13.02;;;;;;;;;;4959666;28;20047;-76
2023/10/02 00:57:50;;;;;;;16.42;12.88;;;;;;;;;;4959378;28;20035;-76
2023/10/02 01:00:36;;;;;;;18.23;13.50;;;;;;;;;;4959707;28;20041;-76
2023/10/02 01:03:05;;;;;;;17.33;12.57;;;;;;;;;;4959218;28;20039;-79
2023/10/02 01:05:41;;;;;;;16.52;12.25;;;;;;;;;;4959312;28;20648;-76
2023/10/02 01:08:42;;;;;;;18.20;13.00;;;;;;;;;;4956327;28;20045;-76
2023/10/02 01:11:13;;;;;;;18.13;12.55;;;;;;;;;;4957778;28;20051;-76
2023/10/02 01:13:39;;;;;;;19.23;12.90;;;;;;;;;;4961898;28;20515;-77
2023/10/02 01:16:09;;;;;;;20.40;13.43;;;;;;;;;;4960980;28;20047;-76
2023/10/02 01:18:39;;;;;;;17.88;13.02;;;;;;;;;;4961360;28;20743;-76
2023/10/02 01:21:12;;;;;;;19.50;12.63;;;;;;;;;;4959285;28;20051;-76
2023/10/02 01:26:50;;;;;;;19.08;13.00;;;;;;;;;;4969988;28;20135;-77
2023/10/02 01:29:16;;;;;;;20.88;12.88;;;;;;;;;;4971430;28;20054;-77
2023/10/02 01:31:42;;;;;;;20.23;12.63;;;;;;;;;;4973595;28;20050;-76
2023/10/02 01:34:33;;;;;;;17.05;13.25;;;;;;;;;;4974524;28;20030;-76
2023/10/02 01:37:00;;;;;;;17.00;12.05;;;;;;;;;;4968701;28;20218;-77
2023/10/02 01:39:25;;;;;;;17.33;12.43;;;;;;;;;;4944870;28;20049;-76
2023/10/02 01:41:54;;;;;;;21.38;13.45;;;;;;;;;;4959002;28;20034;-76
2023/10/02 01:44:24;;;;;;;16.98;12.40;;;;;;;;;;4972240;28;20081;-76
2023/10/02 01:46:50;;;;;;;23.58;12.60;;;;;;;;;;4970211;28;20038;-77
2023/10/02 01:49:26;;;;;;;17.58;12.90;;;;;;;;;;4961545;28;20555;-77
2023/10/02 01:51:55;;;;;;;19.55;12.70;;;;;;;;;;4960164;28;20817;-76
2023/10/02 01:54:29;;;;;;;18.55;13.32;;;;;;;;;;4978958;28;20078;-76
2023/10/02 01:56:56;;;;;;;17.30;12.95;;;;;;;;;;4964993;28;20053;-76
2023/10/02 01:59:24;;;;;;;19.25;11.85;;;;;;;;;;4962466;28;20664;-76
2023/10/02 02:01:57;;;;;;;17.10;12.30;;;;;;;;;;4975629;28;20452;-77
2023/10/02 02:04:27;;;;;;;19.95;13.10;;;;;;;;;;4964740;28;20062;-76
2023/10/02 02:06:55;;;;;;;16.10;11.52;;;;;;;;;;4964211;28;20038;-76
2023/10/02 02:09:25;;;;;;;19.35;13.02;;;;;;;;;;4965407;28;20034;-77
2023/10/02 02:12:10;;;;;;;20.02;12.85;;;;;;;;;;4965495;28;20732;-77
2023/10/02 02:14:50;;;;;;;14.07;10.55;;;;;;;;;;4966159;28;20031;-76
2023/10/02 02:17:20;;;;;;;15.27;11.67;;;;;;;;;;4962823;28;20062;-76
2023/10/02 02:19:49;;;;;;;15.98;12.65;;;;;;;;;;4965513;28;20086;-76
2023/10/02 02:22:16;;;;;;;17.20;13.10;;;;;;;;;;4956780;28;20484;-76
2023/10/02 02:24:42;;;;;;;16.33;12.57;;;;;;;;;;4956455;28;20062;-76
2023/10/02 02:27:08;;;;;;;18.83;12.43;;;;;;;;;;4956154;28;20117;-76
2023/10/02 02:29:34;;;;;;;19.10;13.27;;;;;;;;;;4958972;28;20117;-76
2023/10/02 02:32:00;;;;;;;15.52;13.02;;;;;;;;;;4965048;28;20044;-76
2023/10/02 02:34:26;;;;;;;20.52;13.70;;;;;;;;;;4965248;28;20031;-75
2023/10/02 02:36:54;;;;;;;16.85;13.35;;;;;;;;;;4964588;28;20041;-77
2023/10/02 02:39:22;;;;;;;22.15;14.10;;;;;;;;;;4960472;28;20066;-76
2023/10/02 02:41:49;;;;;;;17.00;13.50;;;;;;;;;;4966105;28;20109;-75
2023/10/02 02:47:07;;;;;;;20.10;12.55;;;;;;;;;;4966292;28;20495;-76
2023/10/02 02:49:48;;;;;;;19.58;13.45;;;;;;;;;;4962970;28;20026;-74
2023/10/02 02:52:19;;;;;;;16.80;12.90;;;;;;;;;;4971173;28;20610;-76
2023/10/02 02:54:47;;;;;;;16.48;11.85;;;;;;;;;;4973257;28;20039;-77
2023/10/02 02:57:14;;;;;;;24.40;12.68;;;;;;;;;;4969510;28;20034;-75
2023/10/02 02:59:40;;;;;;;17.17;12.48;;;;;;;;;;4978605;28;20035;-76
2023/10/02 03:02:09;;;;;;;17.02;12.35;;;;;;;;;;4947861;28;20045;-76
2023/10/02 03:04:38;;;;;;;20.60;12.68;;;;;;;;;;4968109;28;20035;-77
2023/10/02 03:07:29;;;;;;;17.13;13.07;;;;;;;;;;4968517;28;20034;-76
2023/10/02 03:09:58;;;;;;;20.05;13.88;;;;;;;;;;4982127;28;20054;-78
2023/10/02 03:12:24;;;;;;;18.35;13.65;;;;;;;;;;4969949;28;20049;-77
2023/10/02 03:14:54;;;;;;;19.60;12.73;;;;;;;;;;4984617;28;20038;-77
2023/10/02 03:17:28;;;;;;;18.70;13.32;;;;;;;;;;4985171;28;20026;-78
2023/10/02 03:19:56;;;;;;;19.00;13.70;;;;;;;;;;4966417;28;20039;-77
2023/10/02 03:22:24;;;;;;;17.65;12.85;;;;;;;;;;4963981;28;20042;-76
2023/10/02 03:24:53;;;;;;;18.10;13.60;;;;;;;;;;4962805;28;20552;-75
2023/10/02 03:27:21;;;;;;;;;;;;;;;;;;4956603;28;20406;-77
2023/10/02 03:29:49;;;;;;;20.85;13.65;;;;;;;;;;4964888;28;19925;-77
2023/10/02 03:32:15;;;;;;;22.50;13.77;;;;;;;;;;4962641;28;20038;-76
2023/10/02 03:34:41;;;;;;;21.35;13.98;;;;;;;;;;4961966;28;20635;-76
2023/10/02 03:42:25;;;;;;;19.15;13.43;;;;;;;;;;4964271;28;20459;-76
2023/10/02 03:44:56;;;;;;;17.50;12.90;;;;;;;;;;4963478;28;20026;-77
2023/10/02 03:47:33;;;;;;;18.45;13.23;;;;;;;;;;4961471;28;20340;-76
2023/10/02 03:50:03;;;;;;;21.55;12.98;;;;;;;;;;4963392;28;20097;-77
2023/10/02 03:52:34;;;;;;;18.95;13.40;;;;;;;;;;4958532;28;20073;-78
2023/10/02 03:55:14;;;;;;;21.77;13.77;;;;;;;;;;4965196;28;20501;-77
2023/10/02 03:57:54;;;;;;;18.58;13.70;;;;;;;;;;4958444;28;20030;-77
2023/10/02 04:00:27;;;;;;;16.02;13.60;;;;;;;;;;4962795;28;20948;-78
2023/10/02 04:02:56;;;;;;;19.75;13.02;;;;;;;;;;4959241;28;20397;-77
2023/10/02 04:10:55;;;;;;;20.30;14.20;;;;;;;;;;4960642;28;20500;-79
2023/10/02 04:13:27;;;;;;;22.92;14.15;;;;;;;;;;4953607;28;20047;-77
2023/10/02 04:18:46;;;;;;;20.35;14.00;;;;;;;;;;4967452;28;20040;-77
2023/10/02 04:21:22;;;;;;;20.50;13.75;;;;;;;;;;4963145;28;20039;-77
2023/10/02 04:23:52;;;;;;;20.98;13.90;;;;;;;;;;4968845;28;20373;-75
2023/10/02 04:26:23;;;;;;;25.40;14.43;;;;;;;;;;4970062;28;20030;-76
2023/10/02 04:28:58;;;;;;;19.10;14.00;;;;;;;;;;4963466;28;20035;-77
2023/10/02 04:31:27;;;;;;;18.45;14.50;;;;;;;;;;4960540;28;20042;-78
2023/10/02 04:36:40;;;;;;;20.98;13.75;;;;;;;;;;4962957;28;20372;-78
2023/10/02 04:42:18;;;;;;;19.73;13.75;;;;;;;;;;4961896;28;20070;-76
2023/10/02 04:44:56;;;;;;;20.40;14.88;;;;;;;;;;4957457;28;20035;-77
2023/10/02 04:47:26;;;;;;;25.60;14.50;;;;;;;;;;4956934;28;20931;-77
2023/10/02 04:53:19;;;;;;;22.45;14.60;;;;;;;;;;4955641;28;20134;-77
2023/10/02 04:55:48;;;;;;;24.63;14.80;;;;;;;;;;4960679;28;20085;-77
2023/10/02 04:58:19;;;;;;;18.10;13.10;;;;;;;;;;4957437;28;20045;-76
2023/10/02 05:03:37;;;;;;;22.77;14.50;;;;;;;;;;4958435;28;20031;-77
2023/10/02 05:06:04;;;;;;;16.30;12.15;;;;;;;;;;4961412;28;20564;-76
2023/10/02 05:08:40;;;;;;;21.92;14.75;;;;;;;;;;4962052;28;20077;-78
2023/10/02 05:11:07;;;;;;;21.98;14.02;;;;;;;;;;4959564;28;20050;-77
2023/10/02 05:13:59;;;;;;;13.82;12.45;;;;;;;;;;4957591;28;20026;-78
2023/10/02 05:16:35;;;;;;;19.48;14.10;;;;;;;;;;4960929;28;20034;-76
2023/10/02 05:19:09;;;;;;;20.02;14.35;;;;;;;;;;4959831;28;20031;-77
2023/10/02 05:21:38;;;;;;;21.15;14.70;;;;;;;;;;4956285;28;20041;-77
2023/10/02 05:24:13;;;;;;;17.58;14.35;;;;;;;;;;4955660;28;20057;-78
2023/10/02 05:26:41;;;;;;;22.30;14.13;;;;;;;;;;4964469;28;20085;-77
2023/10/02 05:29:12;;;;;;;25.92;14.43;;;;;;;;;;4961760;28;20159;-76
2023/10/02 05:31:41;;;;;;;18.20;13.93;;;;;;;;;;4966990;28;20030;-77
2023/10/02 05:34:18;;;;;;;15.70;13.25;;;;;;;;;;4964187;28;20514;-77
2023/10/02 05:39:28;;;;;;;21.15;14.52;;;;;;;;;;4965761;28;20089;-76
2023/10/02 05:42:05;;;;;;;21.13;13.48;;;;;;;;;;4964322;28;20034;-77
2023/10/02 05:44:35;;;;;;;21.55;13.60;;;;;;;;;;4955648;28;20110;-77
2023/10/02 05:47:07;;;;;;;21.33;14.68;;;;;;;;;;4962966;28;20073;-76
2023/10/02 05:49:38;;;;;;;21.83;13.68;;;;;;;;;;4951496;28;20139;-77
2023/10/02 05:52:07;;;;;;;18.27;13.18;;;;;;;;;;4968401;28;20039;-77
2023/10/02 05:54:36;;;;;;;27.35;14.25;;;;;;;;;;4968725;28;20028;-77
2023/10/02 05:57:08;;;;;;;17.70;13.57;;;;;;;;;;4986119;28;20117;-76
2023/10/02 05:59:54;;;;;;;22.13;13.60;;;;;;;;;;4969746;28;20041;-77
2023/10/02 06:02:24;;;;;;;22.95;13.77;;;;;;;;;;4965361;28;20076;-77
2023/10/02 06:05:04;;;;;;;17.10;13.32;;;;;;;;;;4967804;28;20412;-78
2023/10/02 06:07:46;;;;;;;20.85;13.52;;;;;;;;;;4977219;28;20500;-77
2023/10/02 06:10:25;;;;;;;17.77;12.50;;;;;;;;;;4967226;28;20035;-76
2023/10/02 06:13:05;;;;;;;18.38;13.07;;;;;;;;;;4966612;28;20023;-76
2023/10/02 06:15:48;;;;;;;19.48;13.50;;;;;;;;;;4961178;28;20039;-76
2023/10/02 06:18:24;;;;;;;15.80;12.63;;;;;;;;;;4945034;28;20042;-77
2023/10/02 06:21:03;;;;;;;24.70;14.18;;;;;;;;;;4962262;28;20038;-77
2023/10/02 06:23:37;;;;;;;18.35;14.52;;;;;;;;;;4962240;28;20132;-77
2023/10/02 06:26:09;;;;;;;17.52;13.00;;;;;;;;;;4965623;28;20054;-76
2023/10/02 06:28:36;;;;;;;21.55;13.23;;;;;;;;;;4942239;28;20532;-76
2023/10/02 06:31:06;;;;;;;17.00;13.27;;;;;;;;;;4963970;28;20106;-78
2023/10/02 06:33:38;;;;;;;18.95;12.63;;;;;;;;;;4960991;28;20035;-78
2023/10/02 06:36:05;;;;;;;19.52;13.73;;;;;;;;;;4963945;28;20046;-76
2023/10/02 06:38:31;;;;;;;17.95;13.68;;;;;;;;;;4964615;28;20050;-77
2023/10/02 06:40:59;;;;;;;18.75;13.40;;;;;;;;;;4964571;28;20035;-77
2023/10/02 06:43:32;;;;;;;18.50;13.15;;;;;;;;;;4963803;28;20094;-76
2023/10/02 06:46:09;;;;;;;18.80;12.77;;;;;;;;;;4962950;28;20469;-77
2023/10/02 06:48:43;;;;;;;17.65;13.05;;;;;;;;;;4952605;28;20042;-77
2023/10/02 06:51:15;;;;;;;20.40;13.65;;;;;;;;;;4968456;28;20500;-77
2023/10/02 06:53:43;;;;;;;16.17;11.80;;;;;;;;;;4964846;28;20035;-76
2023/10/02 06:56:11;;;;;;;18.15;13.13;;;;;;;;;;4962293;28;20062;-77
2023/10/02 06:58:49;;;;;;;18.33;12.52;;;;;;;;;;4965376;28;20054;-77
2023/10/02 07:01:18;;;;;;;18.75;12.95;;;;;;;;;;4956649;28;20054;-77
2023/10/02 07:03:50;;;;;;;18.65;13.15;;;;;;;;;;4961826;28;20050;-76
2023/10/02 07:06:19;;;;;;;18.73;12.85;;;;;;;;;;4960085;28;20054;-76
2023/10/02 07:08:48;;;;;;;18.98;12.15;;;;;;;;;;4963991;28;20050;-79
2023/10/02 07:11:18;;;;;;;23.50;13.77;;;;;;;;;;4962661;28;20093;-74
2023/10/02 07:13:51;;;;;;;18.42;12.77;;;;;;;;;;4959142;28;20400;-76
2023/10/02 07:16:22;;;;;;;18.35;12.50;;;;;;;;;;4962545;28;20034;-77
2023/10/02 07:18:53;;;;;;;18.42;12.50;;;;;;;;;;4963555;28;20039;-76
2023/10/02 07:21:19;;;;;;;17.60;12.43;;;;;;;;;;4961857;28;20528;-77
2023/10/02 07:23:45;;;;;;;19.67;12.98;;;;;;;;;;4963624;28;20460;-77
2023/10/02 07:26:45;;;;;;;15.68;13.30;;;;;;;;;;4962881;28;20030;-76
2023/10/02 07:29:07;;;;;;;18.20;12.93;;;;;;;;;;4960983;28;20621;-76
2023/10/02 07:31:34;;;;;;;17.05;12.93;;;;;;;;;;4963406;28;20047;-76
2023/10/02 07:34:01;;;;;;;17.13;13.35;;;;;;;;;;4965148;28;20035;-77
2023/10/02 07:36:26;;;;;;;18.92;12.85;;;;;;;;;;4959772;28;20654;-76
2023/10/02 07:38:53;;;;;;;18.17;12.90;;;;;;;;;;4963673;28;20035;-77
2023/10/02 07:41:25;;;;;;;16.58;13.20;;;;;;;;;;4963599;28;20492;-78
2023/10/02 07:43:53;;;;;;;17.58;13.18;;;;;;;;;;4962081;28;20038;-76
2023/10/02 07:46:22;;;;;;;16.40;13.27;;;;;;;;;;4940869;28;20116;-76
2023/10/02 07:48:57;;;;;;;17.55;13.10;;;;;;;;;;4961817;28;20039;-76
2023/10/02 07:51:30;;;;;;;16.65;12.85;;;;;;;;;;4957380;28;20499;-78
2023/10/02 07:54:02;;;;;;;19.70;13.13;;;;;;;;;;4960419;28;20042;-76
2023/10/02 07:56:29;;;;;;;18.95;12.68;;;;;;;;;;4963093;28;20735;-77
2023/10/02 07:58:55;;;;;;;22.50;13.55;;;;;;;;;;4961188;28;20031;-77
2023/10/02 08:01:25;;;;;;;21.02;14.45;;;;;;;;;;4958735;28;20407;-77
2023/10/02 08:03:51;;;;;;;17.33;12.82;;;;;;;;;;4957000;28;20035;-75
2023/10/02 08:06:21;;;;;;;19.85;13.50;;;;;;;;;;4960023;28;20047;-74
2023/10/02 08:09:24;;;;;;;21.98;13.73;;;;;;;;;;4956556;28;20035;-74
2023/10/02 08:11:38;;;;;;;21.13;12.23;;;;;;;;;;4961168;28;20034;-74
2023/10/02 08:14:05;;;;;;;16.80;12.40;;;;;;;;;;4960004;28;20057;-74
2023/10/02 08:16:34;;;;;;;18.02;12.38;;;;;;;;;;4960327;28;20085;-74
2023/10/02 08:19:05;;;;;;;14.70;11.98;;;;;;;;;;4959230;28;20097;-75
2023/10/02 08:21:37;;;;;;;15.90;11.68;;;;;;;;;;4961785;28;20461;-74
2023/10/02 08:24:03;;;;;;;19.90;13.20;;;;;;;;;;4960717;28;20046;-74
2023/10/02 08:26:38;;;;;;;20.33;12.38;;;;;;;;;;4954508;28;20091;-73
2023/10/02 08:29:14;;;;;;;19.08;12.15;;;;;;;;;;4959774;28;20097;-74
2023/10/02 08:31:45;;;;;;;18.73;12.68;;;;;;;;;;4959451;28;20488;-75
2023/10/02 08:34:12;;;;;;;15.75;12.48;;;;;;;;;;4957520;28;20030;-76
2023/10/02 08:36:40;;;;;;;15.77;11.60;;;;;;;;;;4963242;28;20060;-74
2023/10/02 08:39:06;;;;;;;14.63;11.68;;;;;;;;;;4960344;28;20091;-75
2023/10/02 08:41:43;;;;;;;15.40;11.38;;;;;;;;;;4962203;28;20054;-75
2023/10/02 08:44:13;;;;;;;15.82;11.80;;;;;;;;;;4954319;28;20038;-76
2023/10/02 08:46:42;;;;;;;15.35;12.23;;;;;;;;;;4961548;28;20093;-74
2023/10/02 08:49:16;;;;;;;17.23;12.75;;;;;;;;;;4961705;28;20037;-76
2023/10/02 08:51:48;;;;;;;23.13;12.40;;;;;;;;;;4973120;28;20031;-75
2023/10/02 08:54:15;;;;;;;19.08;12.32;;;;;;;;;;4961433;28;20101;-76
2023/10/02 08:56:44;;;;;;;16.90;11.82;;;;;;;;;;4958975;28;20035;-76
2023/10/02 08:59:18;;;;;;;18.92;12.52;;;;;;;;;;4960521;28;20031;-72
2023/10/02 09:01:48;;;;;;;19.13;12.15;;;;;;;;;;4972185;28;20034;-75
2023/10/02 09:04:22;;;;;;;15.57;11.57;;;;;;;;;;4954509;28;20046;-73
2023/10/02 09:06:49;;;;;;;20.08;12.30;;;;;;;;;;4955019;28;20458;-75
2023/10/02 09:11:58;;;;;;;16.25;11.85;;;;;;;;;;4959613;28;20629;-76
2023/10/02 09:17:13;;;;;;;15.43;12.02;;;;;;;;;;4960741;28;20070;-74
2023/10/02 09:19:41;;;;;;;15.63;12.13;;;;;;;;;;4962749;28;20042;-73
2023/10/02 09:22:14;;;;;;;17.33;12.27;;;;;;;;;;4961009;28;20039;-74
2023/10/02 09:24:41;;;;;;;20.02;12.50;;;;;;;;;;4957451;28;20035;-74
2023/10/02 09:27:30;;;;;;;16.55;12.85;;;;;;;;;;4954246;28;20085;-72
2023/10/02 09:32:50;;;;;;;20.65;12.40;;;;;;;;;;4961313;28;20050;-75
2023/10/02 09:35:29;;;;;;;17.45;13.02;;;;;;;;;;4959105;28;20034;-75
2023/10/02 09:38:10;;;;;;;18.40;13.23;;;;;;;;;;4958657;28;20644;-75
2023/10/02 09:40:59;;;;;;;15.18;12.20;;;;;;;;;;4944721;28;20582;-75
2023/10/02 09:43:31;;;;;;;19.17;12.73;;;;;;;;;;4963337;28;20038;-74
2023/10/02 09:46:05;;;;;;;20.30;12.98;;;;;;;;;;4956103;28;20066;-74
2023/10/02 09:48:46;;;;;;;16.77;12.23;;;;;;;;;;4952669;28;20073;-74
2023/10/02 09:51:30;;;;;;;21.52;12.70;;;;;;;;;;4959635;28;20050;-75
2023/10/02 09:54:05;;;;;;;23.15;12.85;;;;;;;;;;4944836;28;20130;-75
2023/10/02 09:57:04;;;;;;;18.35;12.13;;;;;;;;;;4961339;28;20033;-75
2023/10/02 09:59:46;;;;;;;17.60;13.10;;;;;;;;;;4961848;28;20103;-74
2023/10/02 10:05:02;;;;;;;16.42;12.00;;;;;;;;;;4956995;28;20186;-73
2023/10/02 10:07:52;;;;;;;15.82;11.63;;;;;;;;;;4961628;28;20070;-75
2023/10/02 10:10:27;;;;;;;17.58;12.10;;;;;;;;;;4959437;28;20484;-75
2023/10/02 10:12:58;;;;;;;19.70;12.23;;;;;;;;;;4960799;28;20038;-75
2023/10/02 10:15:25;;;;;;;15.43;11.90;;;;;;;;;;4964204;28;20036;-75
2023/10/02 10:17:51;;;;;;;18.27;12.80;;;;;;;;;;4962561;28;20517;-75
2023/10/02 10:20:20;;;;;;;19.00;12.60;;;;;;;;;;4958747;28;20516;-75
2023/10/02 10:22:56;;;;;;;20.10;12.95;;;;;;;;;;4965544;28;20041;-74
2023/10/02 10:27:58;;;;;;;20.52;13.10;;;;;;;;;;4956538;28;20046;-77
2023/10/02 10:30:39;;;;;;;17.08;12.70;;;;;;;;;;4962328;28;20038;-74
2023/10/02 10:35:41;;;;;;;19.23;13.48;;;;;;;;;;4961510;28;20041;-74
2023/10/02 10:38:34;;;;;;;21.17;12.40;;;;;;;;;;4961821;28;20679;-75
2023/10/02 10:41:01;;;;;;;18.33;12.95;;;;;;;;;;4962747;28;20057;-75
2023/10/02 10:46:27;;;;;;;17.33;12.75;;;;;;;;;;4950536;28;20127;-74
2023/10/02 10:49:09;;;;;;;17.35;12.32;;;;;;;;;;4951037;28;20412;-75
2023/10/02 10:51:37;;;;;;;24.17;12.93;;;;;;;;;;4956307;28;20054;-75
2023/10/02 10:54:19;;;;;;;18.37;13.00;;;;;;;;;;4958303;28;20039;-75
2023/10/02 10:56:58;;;;;;;21.02;12.98;;;;;;;;;;4953477;28;20387;-74
2023/10/02 10:59:32;;;;;;;22.20;14.35;;;;;;;;;;4945953;28;21925;-74
2023/10/02 11:02:12;;;;;;;21.20;13.80;;;;;;;;;;4948983;28;20034;-73
2023/10/02 11:04:51;;;;;;;19.08;13.50;;;;;;;;;;4950765;28;20481;-74
2023/10/02 11:07:21;;;;;;;20.02;13.65;;;;;;;;;;4951920;28;20054;-74
2023/10/02 11:10:14;;;;;;;22.25;14.20;;;;;;;;;;4953030;28;20049;-74
2023/10/02 11:12:37;;;;;;;21.80;13.82;;;;;;;;;;4949501;28;20393;-74
2023/10/02 11:15:15;;;;;;;23.90;15.45;;;;;;;;;;4948645;28;20140;-73
2023/10/02 11:17:42;;;;;;;25.08;15.25;;;;;;;;;;4949442;28;20039;-75
2023/10/02 11:20:09;;;;;;;23.75;15.10;;;;;;;;;;4952340;28;20041;-76
2023/10/02 11:22:52;;;;;;;22.25;14.18;;;;;;;;;;4949989;28;20034;-76
2023/10/02 11:25:18;;;;;;;22.48;14.55;;;;;;;;;;4949655;28;20501;-75
2023/10/02 11:27:57;;;;;;;23.20;14.40;;;;;;;;;;4950267;28;20122;-73
2023/10/02 11:30:32;;;;;;;23.15;15.50;;;;;;;;;;4944447;28;20046;-75
2023/10/02 11:33:04;;;;;;;23.83;15.57;;;;;;;;;;4952513;28;20050;-73
2023/10/02 11:35:37;;;;;;;20.02;14.73;;;;;;;;;;4952520;28;20037;-74
2023/10/02 11:38:07;;;;;;;23.98;15.38;;;;;;;;;;4949757;28;20038;-74
2023/10/02 11:40:36;;;;;;;22.85;14.82;;;;;;;;;;4951481;28;20027;-74
2023/10/02 11:43:02;;;;;;;;;;;;;;;;;;4950845;28;20241;-76
2023/10/02 11:45:29;;;;;;;22.38;15.02;;;;;;;;;;4948632;28;20725;-75
2023/10/02 11:47:55;;;;;;;25.17;15.38;;;;;;;;;;4951023;28;20451;-76
2023/10/02 11:50:23;;;;;;;25.40;16.00;;;;;;;;;;4950633;28;20683;-75
2023/10/02 11:52:49;;;;;;;23.30;15.95;;;;;;;;;;4952137;28;20047;-76
2023/10/02 11:55:18;;;;;;;26.15;16.67;;;;;;;;;;4936042;28;20679;-75
2023/10/02 11:57:51;;;;;;;30.33;16.77;;;;;;;;;;4951018;28;20073;-73
2023/10/02 12:00:21;;;;;;;26.95;15.82;;;;;;;;;;4950992;28;20551;-75
2023/10/02 12:02:47;;;;;;;25.42;16.38;;;;;;;;;;4950534;28;20066;-75
2023/10/02 12:05:14;;;;;;;28.17;17.83;;;;;;;;;;4945047;28;20038;-75
2023/10/02 12:07:41;;;;;;;25.63;17.55;;;;;;;;;;4948157;28;20593;-75
2023/10/02 12:10:07;;;;;;;26.97;17.60;;;;;;;;;;4950072;28;20070;-75
2023/10/02 12:12:33;;;;;;;29.52;18.23;;;;;;;;;;4948068;28;20118;-75
2023/10/02 12:14:58;;;;;;;33.08;18.95;;;;;;;;;;4941641;28;20054;-74
2023/10/02 12:17:24;;;;;;;29.23;18.67;;;;;;;;;;4941845;28;20097;-75
2023/10/02 12:19:51;;;;;;;33.28;19.88;;;;;;;;;;4953181;28;20035;-75
2023/10/02 12:22:17;;;;;;;36.72;21.25;;;;;;;;;;4949504;28;20026;-73
2023/10/02 12:24:46;;;;;;;35.90;21.63;;;;;;;;;;4949432;28;20089;-74
2023/10/02 12:27:11;;;;;;;35.13;20.52;;;;;;;;;;4944040;28;20126;-75
2023/10/02 12:29:37;;;;;;;39.83;21.48;;;;;;;;;;4950936;28;20443;-73
2023/10/02 12:32:03;;;;;;;36.40;21.17;;;;;;;;;;4945240;28;20046;-74
2023/10/02 12:34:29;;;;;;;39.40;22.02;;;;;;;;;;4946585;28;20073;-74
2023/10/02 12:36:55;;;;;;;36.63;21.23;;;;;;;;;;4944745;28;20035;-74
2023/10/02 12:39:22;;;;;;;38.20;21.40;;;;;;;;;;4950309;28;20035;-76
2023/10/02 12:41:48;;;;;;;35.35;20.65;;;;;;;;;;4951452;28;20436;-76
2023/10/02 12:44:14;;;;;;;37.75;21.45;;;;;;;;;;4949675;28;20084;-73
2023/10/02 12:46:43;;;;;;;36.35;21.73;;;;;;;;;;4952034;28;20059;-75
2023/10/02 12:49:13;;;;;;;39.30;21.58;;;;;;;;;;4946744;28;20039;-74
2023/10/02 12:51:41;;;;;;;39.13;21.77;;;;;;;;;;4950677;28;20027;-76
2023/10/02 12:54:07;;;;;;;38.95;21.20;;;;;;;;;;4946296;28;20042;-74
2023/10/02 12:56:33;;;;;;;35.33;21.33;;;;;;;;;;4947315;28;20031;-75
2023/10/02 12:58:59;;;;;;;38.03;22.45;;;;;;;;;;4947622;28;20043;-74
2023/10/02 13:01:27;;;;;;;37.58;22.30;;;;;;;;;;4949470;28;20027;-75
2023/10/02 13:03:59;;;;;;;41.78;22.33;;;;;;;;;;4946944;28;20131;-75
2023/10/02 13:06:26;;;;;;;37.80;22.92;;;;;;;;;;4948395;28;20035;-75
2023/10/02 13:08:57;;;;;;;36.23;21.03;;;;;;;;;;4953925;28;20061;-75
2023/10/02 13:11:24;;;;;;;38.28;22.60;;;;;;;;;;4913516;28;20078;-75
2023/10/02 13:13:53;;;;;;;40.05;22.20;;;;;;;;;;4947255;28;20035;-74
2023/10/02 13:16:19;;;;;;;45.47;21.85;;;;;;;;;;4958873;28;20090;-73
2023/10/02 13:18:46;;;;;;;39.83;21.58;;;;;;;;;;4951881;28;20035;-72
2023/10/02 13:21:18;;;;;;;35.17;21.77;;;;;;;;;;4945156;28;20540;-75
2023/10/02 13:23:45;;;;;;;34.58;20.48;;;;;;;;;;4952379;28;20046;-74
2023/10/02 13:26:11;;;;;;;31.80;20.45;;;;;;;;;;4952946;28;20598;-74
2023/10/02 13:28:38;;;;;;;37.13;21.20;;;;;;;;;;4951333;28;20647;-75
2023/10/02 13:31:13;;;;;;;34.67;20.60;;;;;;;;;;4948735;28;20030;-73
2023/10/02 13:33:40;;;;;;;35.92;21.30;;;;;;;;;;4944900;28;20127;-74
2023/10/02 13:36:07;;;;;;;35.58;20.67;;;;;;;;;;4947868;28;20038;-74
2023/10/02 13:38:35;;;;;;;31.95;20.33;;;;;;;;;;4942761;28;20110;-74
2023/10/02 13:41:11;;;;;;;33.72;20.92;;;;;;;;;;4948113;28;20031;-73
2023/10/02 13:43:40;;;;;;;33.17;20.17;;;;;;;;;;4931427;28;20039;-74
2023/10/02 13:46:14;;;;;;;32.42;19.65;;;;;;;;;;4946618;28;20041;-74
2023/10/02 13:48:42;;;;;;;29.88;18.95;;;;;;;;;;4949471;28;20046;-74
2023/10/02 13:51:07;;;;;;;35.55;19.67;;;;;;;;;;4954584;28;20066;-74
2023/10/02 13:53:34;;;;;;;35.58;19.33;;;;;;;;;;4949532;28;20438;-75
2023/10/02 13:56:08;;;;;;;34.85;19.30;;;;;;;;;;4948799;28;20034;-75
2023/10/02 13:58:39;;;;;;;32.10;18.77;;;;;;;;;;4948624;28;20050;-74
2023/10/02 14:01:06;;;;;;;32.47;18.52;;;;;;;;;;4948739;28;20057;-75
2023/10/02 14:03:32;;;;;;;30.48;18.70;;;;;;;;;;4952350;28;20090;-74
2023/10/02 14:06:00;;;;;;;29.92;18.95;;;;;;;;;;4951068;28;20042;-76
2023/10/02 14:08:27;;;;;;;33.42;19.70;;;;;;;;;;4961129;28;20048;-75
2023/10/02 14:10:53;;;;;;;38.75;19.17;;;;;;;;;;4954363;28;20038;-75
2023/10/02 14:13:18;;;;;;;32.38;19.58;;;;;;;;;;4948211;28;20035;-75
2023/10/02 14:15:46;;;;;;;33.13;18.73;;;;;;;;;;4952580;28;20038;-74
2023/10/02 14:18:13;;;;;;;33.13;18.48;;;;;;;;;;4951707;28;20035;-75
2023/10/02 14:20:44;;;;;;;33.83;18.55;;;;;;;;;;4941905;28;20054;-76
2023/10/02 14:23:10;;;;;;;29.23;18.52;;;;;;;;;;4950430;28;20751;-74
2023/10/02 14:25:41;;;;;;;28.27;17.35;;;;;;;;;;4954086;28;20042;-75
2023/10/02 14:28:12;;;;;;;34.42;17.90;;;;;;;;;;4957563;28;20122;-73
2023/10/02 14:30:39;;;;;;;33.42;19.42;;;;;;;;;;4955499;28;20078;-74
2023/10/02 14:33:05;;;;;;;35.83;19.27;;;;;;;;;;4956452;28;20038;-75
2023/10/02 14:35:31;;;;;;;31.45;18.92;;;;;;;;;;4956107;28;20051;-73
2023/10/02 14:37:57;;;;;;;31.10;19.60;;;;;;;;;;4953356;28;20126;-74
2023/10/02 14:40:33;;;;;;;34.22;19.45;;;;;;;;;;4948320;28;20035;-74
2023/10/02 14:43:02;;;;;;;36.30;19.27;;;;;;;;;;4938550;28;20053;-75
2023/10/02 14:45:31;;;;;;;34.35;18.73;;;;;;;;;;4953151;28;20114;-74
2023/10/02 14:47:58;;;;;;;32.05;18.17;;;;;;;;;;4954328;28;20035;-74
2023/10/02 14:50:24;;;;;;;30.63;18.48;;;;;;;;;;4962683;28;20039;-74
2023/10/02 14:52:53;;;;;;;35.45;19.25;;;;;;;;;;4973454;28;20492;-74
2023/10/02 14:55:19;;;;;;;33.88;19.65;;;;;;;;;;4958248;28;20404;-75
2023/10/02 14:57:47;;;;;;;30.67;18.08;;;;;;;;;;4959187;28;20039;-72
2023/10/02 15:00:14;;;;;;;34.88;19.30;;;;;;;;;;4961550;28;20041;-74
2023/10/02 15:02:42;;;;;;;29.95;18.85;;;;;;;;;;4958150;28;20125;-75
2023/10/02 15:05:18;;;;;;;;;;;;;;;;;;4953727;28;20074;-73
2023/10/02 15:07:47;;;;;;;33.28;18.23;;;;;;;;;;4962468;28;20005;-74
2023/10/02 15:10:16;;;;;;;31.80;18.67;;;;;;;;;;4959676;28;20043;-74
2023/10/02 15:12:43;;;;;;;34.35;20.00;;;;;;;;;;4963485;28;20033;-75
2023/10/02 15:15:13;;;;;;;32.10;18.55;;;;;;;;;;4958101;28;20121;-74
2023/10/02 15:17:45;;;;;;;33.13;19.63;;;;;;;;;;4954414;28;20042;-75
2023/10/02 15:20:16;;;;;;;35.42;20.15;;;;;;;;;;4960750;28;20058;-74
2023/10/02 15:22:50;;;;;;;34.13;19.35;;;;;;;;;;4961358;28;20081;-74
2023/10/02 15:25:16;;;;;;;37.85;19.70;;;;;;;;;;4963462;28;20046;-75
2023/10/02 15:27:43;;;;;;;34.92;19.92;;;;;;;;;;4963118;28;20031;-74
2023/10/02 15:30:10;;;;;;;35.30;20.15;;;;;;;;;;4960768;28;20035;-74
2023/10/02 15:32:39;;;;;;;38.08;20.83;;;;;;;;;;4960327;28;20065;-74
2023/10/02 15:35:05;;;;;;;;;;;;;;;;;;4947270;28;20067;-73
2023/10/02 15:37:33;;;;;;;35.35;19.85;;;;;;;;;;4958265;28;20016;-75
2023/10/02 15:40:07;;;;;;;38.60;20.00;;;;;;;;;;4962890;28;20062;-74